Terminal Aerodrome Forecast
Issued by NWS Austin/San Antonio, TX

Current Version | Previous Version | Text Only | Print | Product List | Glossary On
Versions: 1 2 3 4 5 6 7 8 9 10 11 12 13 14 15
000
FTUS44 KEWX 202330
TAFDRT
TAF
KDRT 202330Z 2100/2124 16014KT P6SM FEW070
     FM210200 12010KT P6SM FEW250
     FM211700 14013KT P6SM BKN250=

USA.gov is the U.S. government's official web portal to all federal, state and local government web resources and services.